createdAt,value
2023-03-07T00:02:23.627Z,46.35
2023-03-07T00:07:16.374Z,46.36
2023-03-07T00:09:43.466Z,46.11
2023-03-07T00:12:10.474Z,46.27
2023-03-07T00:14:37.662Z,46.18
2023-03-07T00:17:04.509Z,46.37
2023-03-07T00:19:31.544Z,46.12
2023-03-07T00:21:58.312Z,46.20
2023-03-07T00:24:25.419Z,46.33
2023-03-07T00:26:52.196Z,46.38
2023-03-07T00:29:19.225Z,46.13
2023-03-07T00:31:46.060Z,46.28
2023-03-07T00:34:13.115Z,46.30
2023-03-07T00:36:39.896Z,46.18
2023-03-07T00:39:08.337Z,46.16
2023-03-07T00:41:35.082Z,46.17
2023-03-07T00:44:02.213Z,46.20
2023-03-07T00:46:29.076Z,46.46
2023-03-07T00:48:56.159Z,46.34
2023-03-07T00:51:23.727Z,46.30
2023-03-07T00:53:50.816Z,46.35
2023-03-07T00:56:19.427Z,46.58
2023-03-07T00:58:46.732Z,46.30
2023-03-07T01:01:15.230Z,46.36
2023-03-07T01:03:42.453Z,46.47
2023-03-07T01:06:12.729Z,46.37
2023-03-07T01:08:39.866Z,46.45
2023-03-07T01:11:06.864Z,46.48
2023-03-07T01:13:34.676Z,46.39
2023-03-07T01:16:28.917Z,46.64
2023-03-07T01:18:57.915Z,46.33
2023-03-07T01:21:29.809Z,46.54
2023-03-07T01:23:56.908Z,46.69
2023-03-07T01:26:25.788Z,46.38
2023-03-07T01:28:54.570Z,46.61
2023-03-07T01:31:21.894Z,46.34
2023-03-07T01:33:49.279Z,46.51
2023-03-07T01:36:21.532Z,46.54
2023-03-07T01:38:49.018Z,46.51
2023-03-07T01:41:16.227Z,46.46
2023-03-07T01:43:43.342Z,46.65
2023-03-07T01:46:19.557Z,46.56
2023-03-07T01:48:58.589Z,46.55
2023-03-07T01:51:25.495Z,46.56
2023-03-07T01:53:52.510Z,46.70
2023-03-07T01:56:19.588Z,46.79
2023-03-07T01:58:46.679Z,46.60
2023-03-07T02:01:13.545Z,46.70
2023-03-07T02:03:50.673Z,46.70
2023-03-07T02:06:17.440Z,46.78
2023-03-07T02:08:45.300Z,46.64
2023-03-07T02:11:12.518Z,46.71
2023-03-07T02:13:39.653Z,46.58
2023-03-07T02:16:07.591Z,46.80
2023-03-07T02:18:37.871Z,46.54
2023-03-07T02:21:15.366Z,46.51
2023-03-07T02:24:04.289Z,46.67
2023-03-07T02:26:31.037Z,46.75
2023-03-07T02:28:59.564Z,46.73
2023-03-07T02:31:26.355Z,46.63
2023-03-07T02:33:53.457Z,46.54
2023-03-07T02:36:23.712Z,46.55
2023-03-07T02:38:51.184Z,46.60
2023-03-07T02:41:19.867Z,46.89
2023-03-07T02:43:46.964Z,46.83
2023-03-07T02:46:14.019Z,46.87
2023-03-07T02:48:41.091Z,46.65
2023-03-07T02:51:07.843Z,46.79
2023-03-07T02:53:34.918Z,46.51
2023-03-07T02:56:01.752Z,46.47
2023-03-07T02:58:28.772Z,46.71
2023-03-07T03:00:55.506Z,46.93
2023-03-07T03:03:22.602Z,46.77
2023-03-07T03:05:49.335Z,46.75
2023-03-07T03:08:16.483Z,46.97
2023-03-07T03:10:43.203Z,46.58
2023-03-07T03:13:10.272Z,46.59
2023-03-07T03:15:36.988Z,46.70
2023-03-07T03:18:04.093Z,46.96
2023-03-07T03:20:30.889Z,46.75
2023-03-07T03:22:58.148Z,46.74
2023-03-07T03:25:27.123Z,46.78
2023-03-07T03:27:54.156Z,46.59
2023-03-07T03:30:20.975Z,47.13
2023-03-07T03:32:48.042Z,46.89
2023-03-07T03:35:15.002Z,46.67
2023-03-07T03:37:42.079Z,46.68
2023-03-07T03:40:14.464Z,46.79
2023-03-07T03:42:42.299Z,46.76
2023-03-07T03:45:10.261Z,46.92
2023-03-07T03:47:37.767Z,46.61
2023-03-07T03:50:04.923Z,46.76
2023-03-07T03:52:31.987Z,46.87
2023-03-07T03:54:58.779Z,46.77
2023-03-07T03:57:25.869Z,46.84
2023-03-07T03:59:52.674Z,46.81
2023-03-07T04:02:19.852Z,46.74
2023-03-07T04:04:46.661Z,46.85
2023-03-07T04:07:13.712Z,47.02
2023-03-07T04:09:40.505Z,46.58
2023-03-07T04:12:07.902Z,46.66
2023-03-07T04:14:34.650Z,47.08
2023-03-07T04:17:01.881Z,46.88
2023-03-07T04:19:29.537Z,47.16
2023-03-07T04:21:56.684Z,46.84
2023-03-07T04:24:23.438Z,46.64
2023-03-07T04:26:50.500Z,46.88
2023-03-07T04:29:17.242Z,46.78
2023-03-07T04:31:44.515Z,46.87
2023-03-07T04:34:11.290Z,46.74
2023-03-07T04:36:38.368Z,46.62
2023-03-07T04:39:05.117Z,46.92
2023-03-07T04:41:32.859Z,46.84
2023-03-07T04:43:59.611Z,46.72
2023-03-07T04:46:26.773Z,46.66
2023-03-07T04:48:53.530Z,46.60
2023-03-07T04:51:20.621Z,46.85
2023-03-07T04:53:47.358Z,46.97
2023-03-07T04:56:17.438Z,46.59
2023-03-07T04:58:44.612Z,46.77
2023-03-07T05:01:11.773Z,46.98
2023-03-07T05:03:38.601Z,46.70
2023-03-07T05:06:07.585Z,47.03
2023-03-07T05:08:34.941Z,46.66
2023-03-07T05:11:02.164Z,46.65
2023-03-07T05:13:28.929Z,46.62
2023-03-07T05:15:57.153Z,46.51
2023-03-07T05:18:24.171Z,46.54
2023-03-07T05:20:51.682Z,46.69
2023-03-07T05:23:18.953Z,46.80
2023-03-07T05:25:48.785Z,46.57
2023-03-07T05:28:16.928Z,46.63
2023-03-07T05:30:44.842Z,46.57
2023-03-07T05:33:11.782Z,46.91
2023-03-07T05:35:39.505Z,46.43
2023-03-07T05:38:06.718Z,46.93
2023-03-07T05:40:33.963Z,46.33
2023-03-07T05:43:00.702Z,47.03
2023-03-07T05:45:27.814Z,47.25
2023-03-07T05:47:54.562Z,47.05
2023-03-07T05:50:22.345Z,47.06
2023-03-07T05:52:49.108Z,47.43
2023-03-07T05:55:16.274Z,47.73
2023-03-07T05:57:43.106Z,47.37
2023-03-07T06:00:11.475Z,47.30
2023-03-07T06:02:38.337Z,47.23
2023-03-07T06:05:05.892Z,47.40
2023-03-07T06:07:32.653Z,47.56
2023-03-07T06:09:59.837Z,47.13
2023-03-07T06:12:26.611Z,47.36
2023-03-07T06:14:53.679Z,47.29
2023-03-07T06:17:21.053Z,47.27
2023-03-07T06:19:48.122Z,47.36
2023-03-07T06:22:14.901Z,47.43
2023-03-07T06:24:41.985Z,47.54
2023-03-07T06:27:08.741Z,47.24
2023-03-07T06:29:36.267Z,47.30
2023-03-07T06:32:03.111Z,47.40
2023-03-07T06:34:30.242Z,47.19
2023-03-07T06:36:56.985Z,47.46
2023-03-07T06:39:24.041Z,47.55
2023-03-07T06:41:50.840Z,47.33
2023-03-07T06:44:17.997Z,47.55
2023-03-07T06:46:45.136Z,47.36
2023-03-07T06:49:12.354Z,47.21
2023-03-07T06:51:39.117Z,47.28
2023-03-07T06:54:06.223Z,47.11
2023-03-07T06:56:34.370Z,47.17
2023-03-07T06:59:01.658Z,47.42
2023-03-07T07:01:28.585Z,47.29
2023-03-07T07:03:56.395Z,47.11
2023-03-07T07:06:23.149Z,47.23
2023-03-07T07:08:53.100Z,47.58
2023-03-07T07:11:19.904Z,47.36
2023-03-07T07:13:47.055Z,47.48
2023-03-07T07:16:13.827Z,47.36
2023-03-07T07:18:40.931Z,47.52
2023-03-07T07:21:07.732Z,47.25
2023-03-07T07:23:34.896Z,47.29
2023-03-07T07:26:01.828Z,47.49
2023-03-07T07:28:28.911Z,47.47
2023-03-07T07:30:55.656Z,47.63
2023-03-07T07:33:22.718Z,47.27
2023-03-07T07:35:49.560Z,47.28
2023-03-07T07:38:16.687Z,47.58
2023-03-07T07:40:43.501Z,47.38
2023-03-07T07:43:14.916Z,47.61
2023-03-07T07:45:41.700Z,47.23
2023-03-07T07:48:08.863Z,47.30
2023-03-07T07:50:35.708Z,47.43
2023-03-07T07:53:02.859Z,47.25
2023-03-07T07:55:29.667Z,47.31
2023-03-07T07:57:56.757Z,47.02
2023-03-07T08:00:24.856Z,47.11
2023-03-07T08:02:52.022Z,47.22
2023-03-07T08:05:19.531Z,47.25
2023-03-07T08:07:46.687Z,46.96
2023-03-07T08:10:16.956Z,46.98
2023-03-07T08:12:44.617Z,47.24
2023-03-07T08:15:11.941Z,46.96
2023-03-07T08:17:39.078Z,47.00
2023-03-07T08:20:09.839Z,47.05
2023-03-07T08:22:37.371Z,46.78
2023-03-07T08:25:05.435Z,46.95
2023-03-07T08:27:32.559Z,46.71
2023-03-07T08:30:00.139Z,46.93
2023-03-07T08:32:27.777Z,46.91
2023-03-07T08:34:54.596Z,46.98
2023-03-07T08:37:21.757Z,46.77
2023-03-07T08:39:48.546Z,46.78
2023-03-07T08:42:15.628Z,46.68
2023-03-07T08:44:42.392Z,46.46
2023-03-07T08:47:11.440Z,46.28
2023-03-07T08:49:38.419Z,46.64
2023-03-07T08:52:05.536Z,46.12
2023-03-07T08:54:32.646Z,46.43
2023-03-07T08:57:00.375Z,46.29
2023-03-07T08:59:27.302Z,46.46
2023-03-07T09:01:55.549Z,46.45
2023-03-07T09:04:22.454Z,46.25
2023-03-07T09:06:49.560Z,46.27
2023-03-07T09:09:16.308Z,46.04
2023-03-07T09:11:43.488Z,46.40
2023-03-07T09:14:10.269Z,46.02
2023-03-07T09:16:37.460Z,45.84
2023-03-07T09:19:04.609Z,46.09
2023-03-07T09:21:32.006Z,45.98
2023-03-07T09:23:58.814Z,45.86
2023-03-07T09:26:25.998Z,45.75
2023-03-07T09:28:52.750Z,45.85
2023-03-07T09:31:19.908Z,45.84
2023-03-07T09:33:47.223Z,45.71
2023-03-07T09:36:14.554Z,45.72
2023-03-07T09:38:41.351Z,45.72
2023-03-07T09:41:25.390Z,45.72
2023-03-07T09:44:08.516Z,45.07
2023-03-07T09:47:03.805Z,45.33
2023-03-07T09:49:34.314Z,45.19
2023-03-07T09:52:01.390Z,44.88
2023-03-07T09:54:42.993Z,44.76
2023-03-07T09:57:16.742Z,44.58
2023-03-07T09:59:49.172Z,44.34
2023-03-07T10:02:36.484Z,44.26
2023-03-07T10:05:18.589Z,44.54
2023-03-07T10:07:45.661Z,44.46
2023-03-07T10:10:14.105Z,44.01
2023-03-07T10:12:52.591Z,44.10
2023-03-07T10:15:43.116Z,43.88
2023-03-07T10:18:32.808Z,43.88
2023-03-07T10:21:47.574Z,43.71
2023-03-07T10:24:14.664Z,43.63
2023-03-07T10:26:45.304Z,43.71
2023-03-07T10:29:17.878Z,43.58
2023-03-07T10:32:03.769Z,43.26
2023-03-07T10:34:32.660Z,43.37
2023-03-07T10:37:11.525Z,43.25
2023-03-07T10:39:43.686Z,43.14
2023-03-07T10:42:13.881Z,42.71
2023-03-07T10:44:40.963Z,42.87
2023-03-07T10:47:08.869Z,42.77
2023-03-07T10:49:40.593Z,42.74
2023-03-07T10:52:27.935Z,42.49
2023-03-07T10:54:55.274Z,42.39
2023-03-07T10:57:27.218Z,42.29
2023-03-07T10:59:54.335Z,42.27
2023-03-07T11:02:37.181Z,42.14
2023-03-07T11:05:21.651Z,41.96
2023-03-07T11:07:48.548Z,42.04
2023-03-07T11:10:33.281Z,41.94
2023-03-07T11:13:00.134Z,41.94
2023-03-07T11:15:27.673Z,41.86
2023-03-07T11:17:54.445Z,41.67
2023-03-07T11:20:30.461Z,41.56
2023-03-07T11:23:16.872Z,41.73
2023-03-07T11:25:44.160Z,41.40
2023-03-07T11:28:33.609Z,41.27
2023-03-07T11:31:06.867Z,41.19
2023-03-07T11:33:59.369Z,41.36
2023-03-07T11:36:35.054Z,41.21
2023-03-07T11:39:07.345Z,41.16
2023-03-07T11:41:39.686Z,41.01
2023-03-07T11:44:18.833Z,40.75
2023-03-07T11:47:17.519Z,41.01
2023-03-07T11:50:06.612Z,40.74
2023-03-07T11:52:39.526Z,40.97
2023-03-07T11:55:18.454Z,40.94
2023-03-07T11:58:03.700Z,40.99
2023-03-07T12:01:01.418Z,40.80
2023-03-07T12:03:46.740Z,40.85
2023-03-07T12:06:39.190Z,40.87
2023-03-07T12:09:21.097Z,40.77
2023-03-07T12:11:56.612Z,40.75
2023-03-07T12:14:29.826Z,40.56
2023-03-07T12:16:56.847Z,40.46
2023-03-07T12:19:50.232Z,40.17
2023-03-07T12:22:27.082Z,40.32
2023-03-07T12:25:25.489Z,40.02
2023-03-07T12:28:10.898Z,40.16
2023-03-07T12:30:56.801Z,40.13
2023-03-07T12:33:28.072Z,39.86
2023-03-07T12:35:58.675Z,39.91
2023-03-07T12:38:36.521Z,40.04
2023-03-07T12:41:16.227Z,39.83
2023-03-07T12:43:45.401Z,39.34
2023-03-07T12:46:18.066Z,39.59
2023-03-07T12:48:48.306Z,39.53
2023-03-07T12:51:21.290Z,38.80
2023-03-07T12:53:51.577Z,39.00
2023-03-07T12:56:33.927Z,39.14
2023-03-07T12:59:04.661Z,38.86
2023-03-07T13:01:33.750Z,39.50
2023-03-07T13:04:10.724Z,39.26
2023-03-07T13:06:39.953Z,39.27
2023-03-07T13:09:06.857Z,39.25
2023-03-07T13:11:34.419Z,39.32
2023-03-07T13:14:02.453Z,39.39
2023-03-07T13:16:33.642Z,39.02
2023-03-07T13:19:35.959Z,39.42
2023-03-07T13:22:03.590Z,39.19
2023-03-07T13:24:40.162Z,39.32
2023-03-07T13:27:17.164Z,39.48
2023-03-07T13:30:11.932Z,39.39
2023-03-07T13:32:48.599Z,39.34
2023-03-07T13:35:27.316Z,39.13
2023-03-07T13:38:16.186Z,39.44
2023-03-07T13:40:48.752Z,39.26
2023-03-07T13:43:18.730Z,39.10
2023-03-07T13:45:48.785Z,39.46
2023-03-07T13:48:25.249Z,39.35
2023-03-07T13:50:51.992Z,39.51
2023-03-07T13:53:32.019Z,39.38
2023-03-07T13:56:17.211Z,39.66
2023-03-07T13:58:56.413Z,39.84
2023-03-07T14:01:32.852Z,39.75
2023-03-07T14:04:38.371Z,39.53
2023-03-07T14:07:26.532Z,39.51
2023-03-07T14:09:58.063Z,39.69
2023-03-07T14:12:31.910Z,39.41
2023-03-07T14:15:05.652Z,39.41
2023-03-07T14:17:41.456Z,39.38
2023-03-07T14:20:23.679Z,39.12
2023-03-07T14:23:42.424Z,39.11
2023-03-07T14:26:13.212Z,39.54
2023-03-07T14:28:47.998Z,39.53
2023-03-07T14:31:30.402Z,39.35
2023-03-07T14:33:57.840Z,39.12
2023-03-07T14:36:26.467Z,39.25
2023-03-07T14:38:58.015Z,39.21
2023-03-07T14:41:45.540Z,39.16
2023-03-07T14:44:47.551Z,39.26
2023-03-07T14:47:23.747Z,39.48
2023-03-07T14:49:54.449Z,39.14
2023-03-07T14:52:30.865Z,39.23
2023-03-07T14:55:03.001Z,39.18
2023-03-07T14:57:40.116Z,39.23
2023-03-07T15:00:11.551Z,39.28
2023-03-07T15:03:02.331Z,38.91
2023-03-07T15:05:35.711Z,39.13
2023-03-07T15:08:02.882Z,38.98
2023-03-07T15:10:33.767Z,39.45
2023-03-07T15:13:00.945Z,39.57
2023-03-07T15:15:42.229Z,39.38
2023-03-07T15:18:33.591Z,39.46
2023-03-07T15:21:00.447Z,39.32
2023-03-07T15:23:28.053Z,39.39
2023-03-07T15:25:57.612Z,39.26
2023-03-07T15:28:35.282Z,39.39
2023-03-07T15:31:02.597Z,39.53
2023-03-07T15:33:31.365Z,39.56
2023-03-07T15:36:19.372Z,39.56
2023-03-07T15:38:50.755Z,39.74
2023-03-07T15:41:36.948Z,39.72
2023-03-07T15:44:16.681Z,39.75
2023-03-07T15:46:46.211Z,39.93
2023-03-07T15:49:22.208Z,39.79
2023-03-07T15:51:51.099Z,39.82
2023-03-07T15:54:20.654Z,40.01
2023-03-07T15:56:54.273Z,40.05
2023-03-07T15:59:32.922Z,39.90
2023-03-07T16:02:31.703Z,40.10
2023-03-07T16:05:26.425Z,40.13
2023-03-07T16:07:54.552Z,40.39
2023-03-07T16:10:22.191Z,39.93
2023-03-07T16:12:48.998Z,40.22
2023-03-07T16:15:16.867Z,40.16
2023-03-07T16:17:43.836Z,40.32
2023-03-07T16:20:18.482Z,40.24
2023-03-07T16:22:47.223Z,40.24
2023-03-07T16:25:15.704Z,40.52
2023-03-07T16:27:48.297Z,40.27
2023-03-07T16:30:16.929Z,40.33
2023-03-07T16:32:44.024Z,40.67
2023-03-07T16:35:14.216Z,39.98
2023-03-07T16:37:41.039Z,40.42
2023-03-07T16:40:09.401Z,40.27
2023-03-07T16:42:36.484Z,40.28
2023-03-07T16:45:05.259Z,40.34
2023-03-07T16:47:32.052Z,40.68
2023-03-07T16:49:59.146Z,40.63
2023-03-07T16:52:25.912Z,40.69
2023-03-07T16:54:52.987Z,40.92
2023-03-07T16:57:19.899Z,40.78
2023-03-07T16:59:47.125Z,40.82
2023-03-07T17:02:16.497Z,41.00
2023-03-07T17:04:44.522Z,41.00
2023-03-07T17:07:22.805Z,41.20
2023-03-07T17:09:50.141Z,41.10
2023-03-07T17:12:16.901Z,41.38
2023-03-07T17:14:44.307Z,41.46
2023-03-07T17:17:16.587Z,41.23
2023-03-07T17:19:43.654Z,41.60
2023-03-07T17:22:10.419Z,41.47
2023-03-07T17:24:37.528Z,41.64
2023-03-07T17:27:04.292Z,41.72
2023-03-07T17:29:42.192Z,41.57
2023-03-07T17:32:09.231Z,41.86
2023-03-07T17:34:36.780Z,42.01
2023-03-07T17:37:03.982Z,41.95
2023-03-07T17:39:31.227Z,42.08
2023-03-07T17:41:58.898Z,42.00
2023-03-07T17:44:26.162Z,42.23
2023-03-07T17:46:53.256Z,42.04
2023-03-07T17:49:21.075Z,42.32
2023-03-07T17:51:53.046Z,42.40
2023-03-07T17:54:20.410Z,42.25
2023-03-07T17:56:47.252Z,42.43
2023-03-07T17:59:14.305Z,42.18
2023-03-07T18:01:41.201Z,42.64
2023-03-07T18:04:08.403Z,42.45
2023-03-07T18:06:36.663Z,42.54
2023-03-07T18:09:05.325Z,42.63
2023-03-07T18:11:32.449Z,42.73
2023-03-07T18:13:59.565Z,42.93
2023-03-07T18:16:27.178Z,43.06
2023-03-07T18:19:00.564Z,42.99
2023-03-07T18:21:29.921Z,42.94
2023-03-07T18:23:57.387Z,43.17
2023-03-07T18:26:24.386Z,43.27
2023-03-07T18:28:53.374Z,43.27
2023-03-07T18:31:30.383Z,43.34
2023-03-07T18:33:57.528Z,43.35
2023-03-07T18:36:24.845Z,43.40
2023-03-07T18:38:51.938Z,43.47
2023-03-07T18:41:20.506Z,43.83
2023-03-07T18:43:47.724Z,43.74
2023-03-07T18:46:16.880Z,43.99
2023-03-07T18:48:44.076Z,43.76
2023-03-07T18:51:13.087Z,43.94
2023-03-07T18:53:40.604Z,43.91
2023-03-07T18:56:12.152Z,43.98
2023-03-07T18:58:39.606Z,43.76
2023-03-07T19:01:13.284Z,44.03
2023-03-07T19:03:40.661Z,44.17
2023-03-07T19:06:08.004Z,44.06
2023-03-07T19:08:35.125Z,44.12
2023-03-07T19:11:02.977Z,44.02
2023-03-07T19:13:30.160Z,44.27
2023-03-07T19:16:07.345Z,44.26
2023-03-07T19:18:35.257Z,44.18
2023-03-07T19:21:19.286Z,44.38
2023-03-07T19:23:46.503Z,44.56
2023-03-07T19:26:13.975Z,43.87
2023-03-07T19:28:41.145Z,44.19
2023-03-07T19:31:13.013Z,44.54
2023-03-07T19:33:40.206Z,44.78
2023-03-07T19:36:08.851Z,44.81
2023-03-07T19:38:36.140Z,44.68
2023-03-07T19:41:04.008Z,44.85
2023-03-07T19:43:31.512Z,44.94
2023-03-07T19:45:58.509Z,44.84
2023-03-07T19:48:26.304Z,44.67
2023-03-07T19:50:53.548Z,45.03
2023-03-07T19:53:21.037Z,44.76
2023-03-07T19:55:47.857Z,44.80
2023-03-07T19:58:15.120Z,44.88
2023-03-07T20:00:42.727Z,44.66
2023-03-07T20:03:14.475Z,44.71
2023-03-07T20:05:42.560Z,44.85
2023-03-07T20:08:10.347Z,45.14
2023-03-07T20:10:38.207Z,44.94
2023-03-07T20:13:05.817Z,44.80
2023-03-07T20:15:33.521Z,45.08
2023-03-07T20:18:02.359Z,45.08
2023-03-07T20:20:29.341Z,44.91
2023-03-07T20:22:57.129Z,45.08
2023-03-07T20:25:24.229Z,45.09
2023-03-07T20:27:51.296Z,44.99
2023-03-07T20:30:19.921Z,45.23
2023-03-07T20:32:47.642Z,44.88
2023-03-07T20:35:14.454Z,45.03
2023-03-07T20:37:41.597Z,45.17
2023-03-07T20:40:09.065Z,45.01
2023-03-07T20:42:36.189Z,45.32
2023-03-07T20:45:03.218Z,45.01
2023-03-07T20:47:32.489Z,45.13
2023-03-07T20:49:59.348Z,45.33
2023-03-07T20:52:26.525Z,45.32
2023-03-07T20:54:53.266Z,44.99
2023-03-07T20:57:20.418Z,45.08
2023-03-07T20:59:47.281Z,45.08
2023-03-07T21:02:14.396Z,45.18
2023-03-07T21:04:41.243Z,45.01
2023-03-07T21:07:08.380Z,45.16
2023-03-07T21:09:35.236Z,45.37
2023-03-07T21:12:02.370Z,45.29
2023-03-07T21:14:29.442Z,45.35
2023-03-07T21:16:56.631Z,45.43
2023-03-07T21:19:23.365Z,45.42
2023-03-07T21:21:50.476Z,45.37
2023-03-07T21:24:17.309Z,45.44
2023-03-07T21:26:44.548Z,45.44
2023-03-07T21:29:13.370Z,45.33
2023-03-07T21:31:40.508Z,45.55
2023-03-07T21:34:08.220Z,45.46
2023-03-07T21:36:35.462Z,45.78
2023-03-07T21:39:04.193Z,45.36
2023-03-07T21:41:31.328Z,45.37
2023-03-07T21:43:58.193Z,45.47
2023-03-07T21:46:25.519Z,45.43
2023-03-07T21:48:52.354Z,45.73
2023-03-07T21:51:19.520Z,45.63
2023-03-07T21:53:46.284Z,45.59
2023-03-07T21:56:14.313Z,45.75
2023-03-07T21:58:41.222Z,45.92
2023-03-07T22:01:12.421Z,45.98
2023-03-07T22:03:39.316Z,45.79
2023-03-07T22:06:07.991Z,45.87
2023-03-07T22:08:35.166Z,46.17
2023-03-07T22:11:03.429Z,45.86
2023-03-07T22:13:32.028Z,45.97
2023-03-07T22:15:59.814Z,46.03
2023-03-07T22:18:26.613Z,46.39
2023-03-07T22:20:55.027Z,46.21
2023-03-07T22:23:26.565Z,46.37
2023-03-07T22:25:53.945Z,46.42
2023-03-07T22:28:20.888Z,46.25
2023-03-07T22:30:49.383Z,46.50
2023-03-07T22:33:16.474Z,46.48
2023-03-07T22:35:43.837Z,46.50
2023-03-07T22:38:10.645Z,46.74
2023-03-07T22:40:39.282Z,46.77
2023-03-07T22:43:06.227Z,46.97
2023-03-07T22:45:33.358Z,46.91
2023-03-07T22:48:00.214Z,47.00
2023-03-07T22:50:27.562Z,47.16
2023-03-07T22:52:55.201Z,47.24
2023-03-07T22:55:22.290Z,47.00
2023-03-07T22:57:49.134Z,47.03
2023-03-07T23:00:16.446Z,46.63
2023-03-07T23:02:43.355Z,46.58
2023-03-07T23:05:10.454Z,47.19
2023-03-07T23:07:37.487Z,46.90
2023-03-07T23:10:04.799Z,46.99
2023-03-07T23:12:31.646Z,47.16
2023-03-07T23:14:58.742Z,46.94
2023-03-07T23:17:25.587Z,46.98
2023-03-07T23:19:52.932Z,47.08
2023-03-07T23:22:19.706Z,47.01
2023-03-07T23:24:47.058Z,47.28
2023-03-07T23:27:13.866Z,47.21
2023-03-07T23:29:41.186Z,47.17
2023-03-07T23:32:08.167Z,47.04
2023-03-07T23:34:35.738Z,47.19
2023-03-07T23:37:02.507Z,47.17
2023-03-07T23:39:29.622Z,47.22
2023-03-07T23:41:56.396Z,47.15
2023-03-07T23:44:23.552Z,46.92
2023-03-07T23:46:50.353Z,47.19
2023-03-07T23:49:17.528Z,46.57
2023-03-07T23:51:44.714Z,47.09
2023-03-07T23:54:11.803Z,46.88
2023-03-07T23:56:38.584Z,46.73
2023-03-07T23:59:05.917Z,46.95
